Time;durP1;ratioP1;P1;durP2;ratioP2;P2;SDS_P1;SDS_P2;PMS_P1;PMS_P2;Temp;Humidity;BMP_temperature;BMP_pressure;BME280_temperature;BME280_humidity;BME280_pressure;Samples;Min_cycle;Max_cycle;Signal;HPM_P1;HPM_P2
2022/02/06 00:02:22;;;;;;;11.10;4.50;;;;;;;3.85;100.00;99602.97;7400109;19;20914;-57
2022/02/06 00:04:52;;;;;;;9.07;5.43;;;;;;;3.87;100.00;99602.25;7395881;19;20425;-57
2022/02/06 00:07:22;;;;;;;13.30;7.50;;;;;;;3.89;100.00;99595.53;7398099;19;20778;-58
2022/02/06 00:09:51;;;;;;;11.27;6.13;;;;;;;3.89;100.00;99600.63;7396580;19;20446;-60
2022/02/06 00:12:37;;;;;;;15.87;6.90;;;;;;;3.91;100.00;99595.59;7397710;19;20410;-58
2022/02/06 00:15:08;;;;;;;10.43;4.90;;;;;;;3.96;100.00;99593.28;7395960;19;20431;-59
2022/02/06 00:17:37;;;;;;;8.10;5.00;;;;;;;4.01;100.00;99579.06;7397372;19;20778;-56
2022/02/06 00:20:08;;;;;;;7.80;5.93;;;;;;;3.97;100.00;99572.06;7395622;19;20490;-56
2022/02/06 00:22:42;;;;;;;7.07;4.73;;;;;;;3.98;100.00;99574.69;7398768;19;20391;-57
2022/02/06 00:25:19;;;;;;;8.63;5.67;;;;;;;4.00;100.00;99560.31;7394989;19;20439;-57
2022/02/06 00:30:38;;;;;;;10.57;6.33;;;;;;;4.00;100.00;99541.59;7391853;19;20442;-57
2022/02/06 00:33:12;;;;;;;9.23;5.03;;;;;;;4.01;100.00;99549.28;7399642;19;20427;-53
2022/02/06 00:38:00;;;;;;;11.63;5.90;;;;;;;4.02;100.00;99537.41;7393079;19;20542;-53
2022/02/06 00:39:04;;;;;;;4.80;3.93;;;;;;;4.01;100.00;99528.88;7398594;19;20399;-59
2022/02/06 00:41:33;;;;;;;10.33;5.17;;;;;;;4.00;100.00;99521.16;7394057;19;20459;-58
2022/02/06 00:44:07;;;;;;;9.00;5.43;;;;;;;4.00;100.00;99510.97;7399370;19;20810;-57
2022/02/06 00:46:38;;;;;;;6.50;4.53;;;;;;;4.03;100.00;99508.53;7391468;19;20886;-55
2022/02/06 00:49:14;;;;;;;13.13;6.90;;;;;;;4.05;100.00;99504.38;7398748;19;20383;-58
2022/02/06 00:51:52;;;;;;;8.87;5.43;;;;;;;4.05;100.00;99489.94;7396641;19;20439;-58
2022/02/06 00:54:22;;;;;;;7.83;4.60;;;;;;;4.05;100.00;99477.19;7395034;19;20415;-56
2022/02/06 00:56:51;;;;;;;6.00;4.20;;;;;;;4.07;100.00;99489.13;7396489;19;20446;-58
2022/02/06 00:59:23;;;;;;;6.87;4.03;;;;;;;4.06;100.00;99485.72;7392908;19;20384;-53
2022/02/06 01:01:53;;;;;;;8.07;6.13;;;;;;;4.07;100.00;99471.28;7398119;19;20905;-58
2022/02/06 01:04:23;;;;;;;8.23;5.37;;;;;;;4.07;100.00;99455.94;7393337;19;20393;-58
2022/02/06 01:06:52;;;;;;;8.10;5.20;;;;;;;4.11;100.00;99453.59;7396209;19;20937;-59
2022/02/06 01:09:22;;;;;;;9.60;4.97;;;;;;;4.09;100.00;99462.03;7394949;19;20391;-59
2022/02/06 01:11:53;;;;;;;10.70;4.03;;;;;;;4.09;100.00;99455.22;7396842;19;20387;-57
2022/02/06 01:14:38;;;;;;;6.60;4.40;;;;;;;4.09;100.00;99429.69;7394674;19;20740;-58
2022/02/06 01:17:18;;;;;;;7.47;3.73;;;;;;;4.11;100.00;99419.56;7396241;19;20431;-57
2022/02/06 01:19:57;;;;;;;6.37;4.70;;;;;;;4.15;100.00;99414.66;7393085;19;20422;-59
2022/02/06 01:22:29;;;;;;;15.13;6.13;;;;;;;4.14;100.00;99423.13;7397239;19;20925;-55
2022/02/06 01:25:04;;;;;;;7.77;4.83;;;;;;;4.15;100.00;99401.03;7393372;19;20804;-59
2022/02/06 01:27:42;;;;;;;5.60;3.83;;;;;;;4.18;100.00;99390.94;7396025;19;20421;-59
2022/02/06 01:30:19;;;;;;;6.60;4.93;;;;;;;4.16;100.00;99388.31;7393913;19;20438;-59
2022/02/06 01:32:55;;;;;;;6.47;2.90;;;;;;;4.17;100.00;99379.00;7395780;19;20395;-59
2022/02/06 01:35:33;;;;;;;8.60;5.80;;;;;;;4.18;100.00;99368.88;7393524;19;20848;-58
2022/02/06 01:38:14;;;;;;;11.00;3.50;;;;;;;4.21;100.00;99357.03;7397411;19;20392;-58
2022/02/06 01:40:56;;;;;;;14.43;4.50;;;;;;;4.20;100.00;99371.47;7392735;19;20455;-55
2022/02/06 01:43:32;;;;;;;6.43;4.27;;;;;;;4.24;100.00;99369.91;7397538;19;20403;-58
2022/02/06 02:08:25;;;;;;;10.57;5.50;;;;;;;4.37;100.00;99313.50;7393176;19;20442;-54
2022/02/06 02:19:49;;;;;;;5.93;3.43;;;;;;;4.34;100.00;99267.38;7383513;19;20395;-59
2022/02/06 02:25:37;;;;;;;7.37;4.03;;;;;;;4.35;100.00;99271.69;7386060;19;20402;-57
2022/02/06 02:28:29;;;;;;;5.90;3.97;;;;;;;4.37;100.00;99249.66;7388484;19;20387;-58
2022/02/06 02:47:17;;;;;;;6.23;3.00;;;;;;;4.41;100.00;99218.31;7386303;19;20761;-59
2022/02/06 02:49:52;;;;;;;7.30;3.70;;;;;;;4.44;100.00;99205.69;7381716;19;20407;-57
2022/02/06 02:52:41;;;;;;;3.20;2.30;;;;;;;4.46;100.00;99190.41;7388331;19;20377;-57
2022/02/06 02:55:28;;;;;;;4.03;2.50;;;;;;;4.44;100.00;99185.25;7387279;19;20419;-57
2022/02/06 02:58:14;;;;;;;4.03;3.20;;;;;;;4.48;100.00;99173.47;7395804;19;20407;-55
2022/02/06 03:00:54;;;;;;;5.47;3.83;;;;;;;4.53;100.00;99183.88;7395152;19;20419;-58
2022/02/06 03:03:27;;;;;;;4.00;2.47;;;;;;;4.52;100.00;99169.38;7398473;19;20395;-53
2022/02/06 03:05:59;;;;;;;5.47;3.30;;;;;;;4.55;100.00;99169.47;7394238;19;21051;-58
2022/02/06 03:08:29;;;;;;;3.70;2.57;;;;;;;4.55;100.00;99165.25;7398797;19;20725;-58
2022/02/06 03:11:05;;;;;;;4.10;2.57;;;;;;;4.58;100.00;99150.03;7391628;19;20419;-56
2022/02/06 03:13:41;;;;;;;4.40;2.77;;;;;;;4.58;100.00;99141.50;7396531;19;20387;-57
2022/02/06 03:16:21;;;;;;;6.07;3.00;;;;;;;4.54;100.00;99154.97;7393363;19;20435;-54
2022/02/06 03:18:57;;;;;;;4.20;3.23;;;;;;;4.58;100.00;99138.97;7398045;19;20375;-57
2022/02/06 03:21:29;;;;;;;6.30;2.67;;;;;;;4.58;100.00;99134.69;7393389;19;20411;-58
2022/02/06 03:24:09;;;;;;;5.23;3.53;;;;;;;4.57;100.00;99127.00;7396824;19;20392;-54
2022/02/06 03:26:41;;;;;;;6.80;3.70;;;;;;;4.58;100.00;99114.25;7395559;19;20403;-54
2022/02/06 03:29:11;;;;;;;4.50;2.93;;;;;;;4.62;100.00;99109.28;7401213;19;20398;-59
2022/02/06 03:31:41;;;;;;;3.20;2.10;;;;;;;4.60;100.00;99106.66;7397098;19;20426;-57
2022/02/06 03:34:11;;;;;;;4.30;2.87;;;;;;;4.62;100.00;99088.84;7395219;19;20380;-53
2022/02/06 03:36:41;;;;;;;4.03;2.93;;;;;;;4.66;100.00;99091.59;7395428;19;20929;-59
2022/02/06 03:39:11;;;;;;;6.60;3.70;;;;;;;4.65;100.00;99081.28;7397236;19;20906;-58
2022/02/06 03:41:53;;;;;;;4.80;3.20;;;;;;;4.67;100.00;99084.81;7396660;19;20434;-56
2022/02/06 03:44:29;;;;;;;4.50;2.90;;;;;;;4.71;100.00;99084.97;7396040;19;20395;-55
2022/02/06 03:47:05;;;;;;;2.97;2.33;;;;;;;4.69;100.00;99078.94;7394538;19;21272;-54
2022/02/06 03:49:46;;;;;;;5.27;3.93;;;;;;;4.71;100.00;99072.19;7394164;19;20399;-58
2022/02/06 03:52:15;;;;;;;5.57;3.23;;;;;;;4.75;100.00;99062.06;7396934;19;20391;-59
2022/02/06 03:54:45;;;;;;;7.17;3.43;;;;;;;4.78;100.00;99070.75;7393501;19;20421;-59
2022/02/06 03:57:17;;;;;;;9.27;4.57;;;;;;;4.78;100.00;99054.53;7394646;19;20410;-56
2022/02/06 03:59:46;;;;;;;7.43;5.03;;;;;;;4.78;100.00;99064.75;7394119;19;20412;-56
2022/02/06 04:02:16;;;;;;;10.63;5.23;;;;;;;4.81;100.00;99049.53;7396866;19;20394;-58
2022/02/06 04:04:45;;;;;;;7.70;4.90;;;;;;;4.83;100.00;99047.94;7393228;19;20806;-58
2022/02/06 04:07:15;;;;;;;8.03;4.53;;;;;;;4.81;100.00;99039.31;7394488;19;20404;-59
2022/02/06 04:09:49;;;;;;;5.40;3.20;;;;;;;4.82;100.00;99031.72;7391195;19;20940;-55
2022/02/06 04:12:22;;;;;;;4.27;3.60;;;;;;;4.82;100.00;99035.97;7398114;19;20379;-54
2022/02/06 04:14:58;;;;;;;7.57;4.63;;;;;;;4.85;100.00;99023.28;7392961;19;20415;-56
2022/02/06 04:17:30;;;;;;;4.90;3.03;;;;;;;4.86;100.00;99013.13;7394273;19;20415;-55
2022/02/06 04:19:59;;;;;;;3.60;2.20;;;;;;;4.90;100.00;99001.34;7392838;19;20413;-55
2022/02/06 04:22:29;;;;;;;6.07;2.50;;;;;;;4.90;100.00;99001.34;7396121;19;20910;-57
2022/02/06 04:25:00;;;;;;;3.30;2.40;;;;;;;4.90;100.00;98991.09;7389860;19;20411;-56
2022/02/06 04:27:32;;;;;;;5.27;2.87;;;;;;;4.89;100.00;98986.81;7393646;19;20413;-53
2022/02/06 04:30:01;;;;;;;8.03;4.77;;;;;;;4.90;100.00;98962.13;7392876;19;20495;-58
2022/02/06 04:32:32;;;;;;;5.60;2.83;;;;;;;4.93;100.00;98967.34;7395701;19;20406;-56
2022/02/06 04:35:03;;;;;;;4.30;3.13;;;;;;;4.91;100.00;98957.06;7392324;19;20772;-56
2022/02/06 04:37:39;;;;;;;5.80;3.03;;;;;;;4.91;100.00;98954.50;7393661;19;20423;-57
2022/02/06 04:40:23;;;;;;;3.27;2.23;;;;;;;4.92;100.00;98935.78;7391536;19;20418;-57
2022/02/06 04:46:08;;;;;;;3.10;2.30;;;;;;;4.94;100.00;98944.41;7391584;19;20429;-57
2022/02/06 05:24:36;;;;;;;6.20;3.73;;;;;;;5.13;100.00;98888.81;7394269;19;20416;-59
2022/02/06 05:29:59;;;;;;;3.80;3.20;;;;;;;5.15;100.00;98876.94;7388929;19;20412;-58
2022/02/06 05:32:37;;;;;;;4.80;2.53;;;;;;;5.17;100.00;98870.16;7394069;19;20379;-56
2022/02/06 05:35:08;;;;;;;5.37;2.90;;;;;;;5.18;100.00;98865.94;7390488;19;20443;-56
2022/02/06 05:37:38;;;;;;;6.40;4.33;;;;;;;5.19;100.00;98860.00;7391974;19;20874;-56
2022/02/06 05:40:09;;;;;;;14.83;3.50;;;;;;;5.21;100.00;98836.22;7390441;19;20400;-58
2022/02/06 05:42:39;;;;;;;3.27;2.83;;;;;;;5.18;100.00;98846.34;7397157;19;20391;-58
2022/02/06 05:45:09;;;;;;;3.23;2.40;;;;;;;5.20;100.00;98848.94;7388034;19;20407;-58
2022/02/06 05:47:41;;;;;;;4.20;2.33;;;;;;;5.24;100.00;98848.25;7391203;19;20416;-56
2022/02/06 05:50:11;;;;;;;2.03;0.87;;;;;;;5.27;100.00;98856.88;7389980;19;20426;-55
2022/02/06 05:52:41;;;;;;;1.40;1.00;;;;;;;5.31;100.00;98836.50;7397165;19;20392;-57
2022/02/06 05:55:11;;;;;;;2.60;1.47;;;;;;;5.35;100.00;98823.00;7388016;19;20419;-59
2022/02/06 05:57:43;;;;;;;3.77;2.30;;;;;;;5.33;100.00;98832.34;7391239;19;20411;-56
2022/02/06 06:00:14;;;;;;;16.70;5.63;;;;;;;5.39;100.00;98829.97;7390038;19;20415;-51
2022/02/06 06:02:46;;;;;;;2.00;1.13;;;;;;;5.36;100.00;98819.63;7391263;19;20455;-56
2022/02/06 06:05:16;;;;;;;1.40;0.77;;;;;;;5.36;100.00;98824.75;7389100;19;20425;-59
2022/02/06 06:07:45;;;;;;;8.60;1.33;;;;;;;5.35;100.00;98823.91;7391221;19;20760;-58
2022/02/06 06:10:15;;;;;;;4.90;1.67;;;;;;;5.33;100.00;98819.53;7391216;19;20448;-55
2022/02/06 06:12:44;;;;;;;6.10;1.53;;;;;;;5.33;100.00;98820.41;7391776;19;20411;-58
2022/02/06 06:15:14;;;;;;;2.10;1.30;;;;;;;5.35;100.00;98818.78;7388910;19;20876;-59
2022/02/06 06:17:46;;;;;;;5.00;1.70;;;;;;;5.34;100.00;98824.69;7389192;19;20442;-59
2022/02/06 06:20:19;;;;;;;4.37;1.30;;;;;;;5.33;100.00;98812.72;7391612;19;20435;-53
2022/02/06 06:22:52;;;;;;;3.90;1.40;;;;;;;5.36;100.00;98817.06;7392497;19;20388;-59
2022/02/06 06:25:23;;;;;;;3.93;1.70;;;;;;;5.35;100.00;98812.78;7388549;19;20954;-59
2022/02/06 06:27:55;;;;;;;4.80;1.13;;;;;;;5.35;100.00;98808.56;7391187;19;20423;-59
2022/02/06 06:30:24;;;;;;;8.67;2.20;;;;;;;5.37;100.00;98813.69;7395413;19;20399;-53
2022/02/06 06:32:56;;;;;;;7.80;2.87;;;;;;;5.42;100.00;98812.16;7399388;19;20394;-57
2022/02/06 06:35:48;;;;;;;6.37;2.53;;;;;;;5.38;100.00;98812.88;7395063;19;20976;-57
2022/02/06 06:38:18;;;;;;;3.43;1.97;;;;;;;5.38;100.00;98811.19;7399383;19;20384;-56
2022/02/06 06:40:47;;;;;;;3.60;1.67;;;;;;;5.39;100.00;98814.63;7394939;19;20415;-55
2022/02/06 06:43:17;;;;;;;7.07;0.97;;;;;;;5.34;100.00;98800.81;7399430;19;20394;-58
2022/02/06 06:45:46;;;;;;;7.43;1.63;;;;;;;5.36;100.00;98799.16;7396073;19;20443;-58
2022/02/06 06:48:18;;;;;;;4.97;1.20;;;;;;;5.31;100.00;98805.81;7398623;19;20937;-56
2022/02/06 06:50:48;;;;;;;9.07;2.73;;;;;;;5.33;100.00;98796.53;7395812;19;20422;-57
2022/02/06 06:53:18;;;;;;;3.90;1.13;;;;;;;5.29;100.00;98807.47;7398494;19;20912;-59
2022/02/06 06:55:55;;;;;;;3.97;1.43;;;;;;;5.26;100.00;98798.91;7393567;19;20415;-54
2022/02/06 06:58:28;;;;;;;6.57;1.10;;;;;;;5.19;100.00;98814.88;7399264;19;20384;-56
2022/02/06 07:01:10;;;;;;;2.33;1.10;;;;;;;5.17;100.00;98798.59;7395141;19;20915;-56
2022/02/06 07:03:42;;;;;;;2.63;0.90;;;;;;;5.17;100.00;98813.06;7398293;19;20712;-57
2022/02/06 07:06:16;;;;;;;1.40;1.03;;;;;;;5.15;100.00;98825.81;7393157;19;20510;-55
2022/02/06 07:08:45;;;;;;;3.40;1.00;;;;;;;5.07;100.00;98829.81;7398520;19;20400;-57
2022/02/06 07:11:15;;;;;;;2.70;1.20;;;;;;;5.06;100.00;98840.81;7397757;19;20798;-56
2022/02/06 07:13:44;;;;;;;4.50;1.30;;;;;;;4.96;100.00;98832.84;7397496;19;20384;-55
2022/02/06 07:16:14;;;;;;;3.00;0.93;;;;;;;4.93;100.00;98830.19;7392788;19;20422;-54
2022/02/06 07:18:46;;;;;;;2.43;1.17;;;;;;;4.81;100.00;98837.44;7396580;19;20392;-53
2022/02/06 07:21:16;;;;;;;2.03;1.07;;;;;;;4.77;100.00;98826.25;7393039;19;20415;-55
2022/02/06 07:23:45;;;;;;;7.37;0.97;;;;;;;4.75;100.00;98822.78;7395012;19;20395;-57
2022/02/06 07:26:19;;;;;;;3.83;0.70;;;;;;;4.66;100.00;98831.00;7391633;19;20434;-56
2022/02/06 07:28:56;;;;;;;4.37;0.97;;;;;;;4.71;100.00;98821.81;7395803;19;20394;-57
2022/02/06 07:31:26;;;;;;;2.80;0.83;;;;;;;4.62;100.00;98818.94;7392511;19;20441;-53
2022/02/06 07:33:58;;;;;;;1.30;0.40;;;;;;;4.56;100.00;98817.03;7395887;19;20388;-58
2022/02/06 07:36:28;;;;;;;3.67;0.87;;;;;;;4.58;100.00;98819.66;7395461;19;20439;-57
2022/02/06 07:38:57;;;;;;;1.60;0.73;;;;;;;4.60;100.00;98820.56;7394633;19;20387;-59
2022/02/06 07:41:27;;;;;;;1.50;0.50;;;;;;;4.56;100.00;98824.69;7395029;19;20779;-59
2022/02/06 07:43:56;;;;;;;1.60;0.73;;;;;;;4.52;100.00;98817.72;7395977;19;20388;-55
2022/02/06 07:46:31;;;;;;;3.23;0.60;;;;;;;4.56;100.00;98808.50;7387092;19;20432;-56
2022/02/06 07:49:05;;;;;;;3.60;1.00;;;;;;;4.57;100.00;98812.81;7395928;19;20919;-59
2022/02/06 07:51:35;;;;;;;4.07;0.93;;;;;;;4.60;100.00;98802.69;7398011;19;20435;-57
2022/02/06 07:54:04;;;;;;;2.50;0.63;;;;;;;4.61;100.00;98812.06;7395747;19;20404;-57
2022/02/06 07:56:34;;;;;;;1.13;0.53;;;;;;;4.65;100.00;98796.03;7396438;19;20435;-57
2022/02/06 07:59:04;;;;;;;3.80;1.57;;;;;;;4.66;100.00;98787.56;7396532;19;20396;-58
2022/02/06 08:01:34;;;;;;;3.53;0.67;;;;;;;4.66;100.00;98789.25;7396600;19;20471;-58
2022/02/06 08:04:07;;;;;;;2.87;1.57;;;;;;;4.58;100.00;98786.44;7396957;19;20396;-58
2022/02/06 08:06:37;;;;;;;1.87;0.57;;;;;;;4.62;100.00;98790.84;7394323;19;20423;-59
2022/02/06 08:09:06;;;;;;;5.90;2.87;;;;;;;4.61;100.00;98776.31;7386325;19;20407;-58
2022/02/06 08:11:45;;;;;;;14.30;7.00;;;;;;;4.81;100.00;98766.75;7395913;19;20532;-57
2022/02/06 08:14:49;;;;;;;3.17;1.40;;;;;;;4.72;100.00;98762.22;7392689;19;20406;-61
2022/02/06 08:17:06;;;;;;;1.13;0.53;;;;;;;4.59;100.00;98763.50;7394048;19;20426;-63
2022/02/06 08:19:38;;;;;;;2.43;1.23;;;;;;;4.66;100.00;98758.59;7392887;19;20470;-56
2022/02/06 08:22:07;;;;;;;54.90;21.03;;;;;;;4.68;100.00;98760.38;7396047;19;20388;-54
2022/02/06 08:24:37;;;;;;;7.50;3.03;;;;;;;4.76;100.00;98750.41;7390725;19;20411;-53
2022/02/06 08:27:07;;;;;;;2.70;1.63;;;;;;;4.71;100.00;98757.03;7396888;19;20420;-59
2022/02/06 08:29:39;;;;;;;2.27;0.60;;;;;;;4.57;100.00;98752.34;7390143;19;20407;-55
2022/02/06 08:32:09;;;;;;;3.63;0.80;;;;;;;4.57;100.00;98744.69;7397461;19;20394;-57
2022/02/06 08:34:42;;;;;;;17.00;6.80;;;;;;;4.69;100.00;98739.13;7391709;19;20791;-57
2022/02/06 08:37:12;;;;;;;5.07;3.03;;;;;;;4.66;100.00;98749.25;7393696;19;20399;-57
2022/02/06 08:39:43;;;;;;;1.90;0.50;;;;;;;4.61;100.00;98745.66;7392256;19;20411;-54
2022/02/06 08:42:14;;;;;;;1.37;0.50;;;;;;;4.59;100.00;98742.19;7395567;19;20388;-58
2022/02/06 08:44:46;;;;;;;3.97;0.53;;;;;;;4.59;100.00;98737.09;7391932;19;20399;-54
2022/02/06 08:47:17;;;;;;;2.70;0.60;;;;;;;4.58;100.00;98738.75;7393125;19;21454;-53
2022/02/06 08:49:49;;;;;;;2.53;0.50;;;;;;;4.60;100.00;98728.59;7390904;19;20415;-51
2022/02/06 08:52:18;;;;;;;1.60;0.40;;;;;;;4.61;100.00;98711.59;7393233;19;20748;-56
2022/02/06 08:54:49;;;;;;;2.30;0.60;;;;;;;4.61;100.00;98699.69;7390615;19;20423;-53
2022/02/06 08:57:24;;;;;;;1.30;0.40;;;;;;;4.59;100.00;98691.09;7391335;19;20403;-54
2022/02/06 08:59:54;;;;;;;1.40;0.50;;;;;;;4.63;100.00;98687.84;7390745;19;20425;-57
2022/02/06 09:02:24;;;;;;;2.03;0.50;;;;;;;4.65;100.00;98691.31;7394791;19;20392;-58
2022/02/06 09:04:56;;;;;;;1.47;0.50;;;;;;;4.68;100.00;98686.28;7391312;19;20422;-55
2022/02/06 09:07:25;;;;;;;1.53;0.70;;;;;;;4.71;100.00;98688.94;7392471;19;20779;-59
2022/02/06 09:10:00;;;;;;;1.30;0.50;;;;;;;4.70;100.00;98683.78;7390816;19;20415;-58
2022/02/06 09:12:30;;;;;;;1.90;0.50;;;;;;;4.72;100.00;98671.94;7394487;19;20397;-56
2022/02/06 09:15:00;;;;;;;3.20;0.60;;;;;;;4.70;100.00;98674.44;7388623;19;20418;-60
2022/02/06 09:17:29;;;;;;;3.20;0.60;;;;;;;4.70;100.00;98664.22;7390059;19;20427;-58
2022/02/06 09:20:01;;;;;;;1.20;0.50;;;;;;;4.67;100.00;98669.22;7393002;19;20448;-56
2022/02/06 09:22:34;;;;;;;2.60;0.43;;;;;;;4.66;100.00;98671.75;7394834;19;20383;-59
2022/02/06 09:25:03;;;;;;;10.60;0.90;;;;;;;4.64;100.00;98673.38;7394641;19;21224;-55
2022/02/06 09:27:35;;;;;;;1.40;0.47;;;;;;;4.58;100.00;98671.50;7395185;19;20765;-58
2022/02/06 09:30:06;;;;;;;2.90;0.73;;;;;;;4.50;100.00;98655.06;7396427;19;20445;-57
2022/02/06 09:35:11;;;;;;;3.33;0.77;;;;;;;4.41;100.00;98656.47;7395145;19;20435;-58
2022/02/06 09:37:41;;;;;;;1.73;0.63;;;;;;;4.44;100.00;98665.94;7390079;19;20428;-58
2022/02/06 09:40:14;;;;;;;2.50;0.67;;;;;;;4.39;100.00;98668.34;7395640;19;20387;-55
2022/02/06 09:42:45;;;;;;;3.47;1.07;;;;;;;4.38;100.00;98653.84;7393775;19;20392;-56
2022/02/06 09:45:15;;;;;;;1.83;0.50;;;;;;;4.42;100.00;98639.47;7396161;19;20909;-60
2022/02/06 09:47:46;;;;;;;1.97;0.60;;;;;;;4.40;100.00;98634.31;7390496;19;20432;-56
2022/02/06 09:50:18;;;;;;;3.93;0.70;;;;;;;4.41;100.00;98625.84;7395063;19;20414;-55
2022/02/06 09:52:48;;;;;;;1.20;0.50;;;;;;;4.39;100.00;98614.72;7392850;19;20392;-57
2022/02/06 09:55:20;;;;;;;1.30;0.50;;;;;;;4.39;100.00;98612.16;7394569;19;20387;-57
2022/02/06 09:57:56;;;;;;;2.23;0.50;;;;;;;4.36;100.00;98604.38;7390907;19;20419;-60
2022/02/06 10:00:29;;;;;;;2.30;0.70;;;;;;;4.38;100.00;98604.44;7396423;19;20403;-59
2022/02/06 10:03:02;;;;;;;1.30;0.43;;;;;;;4.36;100.00;98586.50;7394976;19;20482;-59
2022/02/06 10:05:37;;;;;;;2.77;0.50;;;;;;;4.36;100.00;98578.84;7401670;19;20939;-55
2022/02/06 10:08:13;;;;;;;1.63;0.60;;;;;;;4.35;100.00;98571.16;7398643;19;20419;-57
2022/02/06 10:10:45;;;;;;;3.27;0.60;;;;;;;4.40;100.00;98573.03;7403956;19;20410;-58
2022/02/06 10:13:14;;;;;;;1.73;0.70;;;;;;;4.37;100.00;98588.28;7400260;19;20443;-59
2022/02/06 10:15:44;;;;;;;2.50;0.60;;;;;;;4.29;100.00;98587.13;7402412;19;20399;-55
2022/02/06 10:18:13;;;;;;;1.20;0.50;;;;;;;4.31;100.00;98580.41;7400396;19;20457;-56
2022/02/06 10:20:48;;;;;;;4.33;0.57;;;;;;;4.33;100.00;98573.66;7403736;19;20414;-57
2022/02/06 10:23:29;;;;;;;2.53;0.60;;;;;;;4.31;100.00;98568.50;7400210;19;20446;-55
2022/02/06 10:26:06;;;;;;;2.40;0.80;;;;;;;4.33;100.00;98556.63;7402220;19;20433;-53
2022/02/06 10:28:41;;;;;;;3.67;0.50;;;;;;;4.31;100.00;98552.31;7399814;19;20463;-55
2022/02/06 10:31:10;;;;;;;1.50;0.73;;;;;;;4.32;100.00;98543.84;7403518;19;20379;-54
2022/02/06 10:33:48;;;;;;;2.50;0.93;;;;;;;4.35;100.00;98538.81;7399321;19;20447;-56
2022/02/06 10:36:26;;;;;;;2.80;0.90;;;;;;;4.25;100.00;98521.50;7401552;19;20447;-55
2022/02/06 10:39:02;;;;;;;1.10;0.40;;;;;;;4.19;100.00;98507.72;7399568;19;20448;-54
2022/02/06 10:41:34;;;;;;;2.73;0.73;;;;;;;4.23;100.00;98497.59;7402762;19;20458;-59
2022/02/06 10:44:05;;;;;;;1.30;0.60;;;;;;;4.26;100.00;98490.03;7399943;19;20438;-58
2022/02/06 10:46:37;;;;;;;2.50;0.60;;;;;;;4.29;100.00;98477.34;7401064;19;20434;-57
2022/02/06 10:49:13;;;;;;;2.70;0.67;;;;;;;4.35;100.00;98475.00;7399512;19;20449;-58
2022/02/06 10:51:48;;;;;;;2.70;0.77;;;;;;;4.31;100.00;98460.41;7402639;19;20398;-51
2022/02/06 10:54:19;;;;;;;1.97;0.90;;;;;;;4.19;100.00;98459.22;7399438;19;20836;-55
2022/02/06 10:57:03;;;;;;;1.20;0.50;;;;;;;4.05;100.00;98451.13;7400757;19;20949;-60
2022/02/06 10:59:39;;;;;;;2.47;1.00;;;;;;;4.04;100.00;98441.75;7398321;19;20439;-59
2022/02/06 11:02:10;;;;;;;1.63;0.60;;;;;;;4.03;100.00;98431.47;7402749;19;20390;-60
2022/02/06 11:04:44;;;;;;;2.70;0.60;;;;;;;3.97;100.00;98419.41;7398372;19;20449;-60
2022/02/06 11:07:19;;;;;;;1.20;0.50;;;;;;;3.92;100.00;98414.19;7399987;19;20421;-58
2022/02/06 11:09:49;;;;;;;1.20;0.50;;;;;;;3.86;100.00;98403.78;7398343;19;20445;-56
2022/02/06 11:12:20;;;;;;;1.20;0.40;;;;;;;3.83;100.00;98395.13;7402133;19;20388;-55
2022/02/06 11:14:56;;;;;;;3.50;0.70;;;;;;;3.81;100.00;98390.00;7397322;19;20423;-58
2022/02/06 11:17:30;;;;;;;2.07;0.67;;;;;;;3.84;100.00;98374.78;7399489;19;20426;-57
2022/02/06 11:20:04;;;;;;;8.00;0.60;;;;;;;3.83;100.00;98375.59;7398253;19;20455;-55
2022/02/06 11:22:36;;;;;;;1.37;0.60;;;;;;;3.90;100.00;98367.31;7402048;19;20729;-58
2022/02/06 11:25:08;;;;;;;6.50;0.70;;;;;;;3.94;100.00;98352.13;7400770;19;20526;-56
2022/02/06 11:27:38;;;;;;;1.50;0.50;;;;;;;3.91;100.00;98338.44;7398441;19;20950;-58
2022/02/06 11:30:09;;;;;;;1.97;0.50;;;;;;;3.86;100.00;98344.22;7401109;19;20447;-55
2022/02/06 11:32:40;;;;;;;3.10;0.57;;;;;;;3.89;100.00;98329.88;7401418;19;20398;-54
2022/02/06 11:35:16;;;;;;;1.30;0.40;;;;;;;3.89;100.00;98313.69;7400640;19;20435;-53
2022/02/06 11:46:11;;;;;;;1.47;0.77;;;;;;;3.94;100.00;98281.53;7400522;19;20752;-60
2022/02/06 11:48:41;;;;;;;1.83;0.70;;;;;;;3.89;100.00;98270.31;7391819;19;20414;-56
2022/02/06 11:51:11;;;;;;;1.50;0.70;;;;;;;3.82;100.00;98268.41;7397124;19;20379;-52
2022/02/06 11:53:43;;;;;;;1.30;0.60;;;;;;;3.83;100.00;98257.38;7393213;19;20929;-58
2022/02/06 11:56:23;;;;;;;1.20;0.60;;;;;;;3.84;100.00;98259.97;7395909;19;20395;-58
2022/02/06 11:58:54;;;;;;;3.00;0.87;;;;;;;3.81;100.00;98247.16;7393440;19;20410;-56
2022/02/06 12:01:31;;;;;;;2.13;0.60;;;;;;;3.72;100.00;98249.44;7396749;19;20391;-53
2022/02/06 12:04:06;;;;;;;2.60;0.67;;;;;;;3.73;100.00;98244.38;7393033;19;20430;-60
2022/02/06 12:06:55;;;;;;;6.53;0.80;;;;;;;3.78;100.00;98230.06;7397034;19;20422;-58
2022/02/06 12:09:31;;;;;;;1.30;0.40;;;;;;;3.78;100.00;98224.97;7391519;19;20415;-55
2022/02/06 12:12:24;;;;;;;1.67;0.80;;;;;;;3.74;100.00;98219.75;7396156;19;20395;-58
2022/02/06 12:15:32;;;;;;;1.87;0.90;;;;;;;3.76;100.00;98201.09;7392111;19;20411;-59
2022/02/06 12:18:10;;;;;;;1.20;0.50;;;;;;;3.49;100.00;98206.28;7389659;19;20403;-56
2022/02/06 12:20:50;;;;;;;1.80;0.53;;;;;;;3.34;100.00;98207.53;7399454;19;20399;-59
2022/02/06 12:23:38;;;;;;;1.73;0.90;;;;;;;3.23;100.00;98199.59;7391213;19;20415;-57
2022/02/06 12:26:45;;;;;;;1.10;0.47;;;;;;;3.19;100.00;98196.91;7392369;19;20423;-57
2022/02/06 12:29:19;;;;;;;1.20;0.40;;;;;;;3.14;100.00;98195.88;7392108;19;20419;-56
2022/02/06 12:31:54;;;;;;;23.83;7.73;;;;;;;3.15;100.00;98206.13;7392126;19;20391;-55
2022/02/06 12:36:55;;;;;;;88.93;29.03;;;;;;;3.15;100.00;98202.72;7393849;19;20398;-52
2022/02/06 12:37:30;;;;;;;2.80;0.80;;;;;;;3.04;100.00;98192.19;7385664;19;20419;-57
2022/02/06 12:40:00;;;;;;;1.33;0.50;;;;;;;2.92;100.00;98182.50;7385499;19;20423;-59
2022/02/06 12:42:35;;;;;;;1.20;0.57;;;;;;;2.82;100.00;98179.66;7395188;19;20403;-58
2022/02/06 12:56:51;;;;;;;1.40;0.60;;;;;;;2.64;100.00;98120.50;7276218;19;2907529;-58
2022/02/06 12:59:22;;;;;;;1.30;0.70;;;;;;;2.65;100.00;98118.03;7427411;19;20197;-55
2022/02/06 13:01:54;;;;;;;4.13;0.63;;;;;;;2.73;100.00;98115.72;7432893;19;21018;-55
2022/02/06 13:04:27;;;;;;;1.77;1.03;;;;;;;2.78;100.00;98109.06;7425270;19;20797;-57
2022/02/06 13:07:00;;;;;;;5.10;2.17;;;;;;;2.86;100.00;98104.19;7429384;19;20434;-55
2022/02/06 13:09:35;;;;;;;7.33;3.67;;;;;;;2.84;100.00;98093.13;7427534;19;20414;-60
2022/02/06 13:12:15;;;;;;;11.60;5.07;;;;;;;2.87;100.00;98089.81;7429057;19;20387;-55
2022/02/06 13:15:04;;;;;;;1.30;0.70;;;;;;;2.76;100.00;98095.41;7424127;19;20411;-54
2022/02/06 13:17:48;;;;;;;1.10;0.40;;;;;;;2.74;100.00;98091.97;7428637;19;20397;-57
2022/02/06 13:20:28;;;;;;;1.57;0.90;;;;;;;2.40;100.00;98085.81;7427223;19;20453;-59
2022/02/06 13:23:05;;;;;;;1.20;0.50;;;;;;;2.39;100.00;98081.56;7427612;19;20401;-57
2022/02/06 13:25:56;;;;;;;1.27;0.50;;;;;;;2.30;100.00;98077.03;7422780;19;20446;-56
2022/02/06 13:28:43;;;;;;;1.20;0.50;;;;;;;2.27;100.00;98074.41;7430106;19;20394;-57
2022/02/06 13:31:35;;;;;;;1.20;0.40;;;;;;;2.14;100.00;98078.22;7428457;19;20456;-54
2022/02/06 13:34:17;;;;;;;1.10;0.40;;;;;;;2.11;100.00;98073.06;7424600;19;20419;-61
2022/02/06 13:36:57;;;;;;;1.20;0.50;;;;;;;2.07;100.00;98058.50;7426468;19;20170;-60
2022/02/06 13:39:34;;;;;;;1.43;0.73;;;;;;;2.13;100.00;98048.50;7424566;19;20422;-59
2022/02/06 13:42:18;;;;;;;1.20;0.50;;;;;;;2.16;100.00;98052.03;7430500;19;20405;-56
2022/02/06 13:45:03;;;;;;;1.50;0.60;;;;;;;2.15;100.00;98059.59;7424235;19;20454;-48
2022/02/06 13:47:33;;;;;;;1.47;0.60;;;;;;;2.13;100.00;98066.31;7429063;19;20415;-62
2022/02/06 13:50:03;;;;;;;3.30;0.83;;;;;;;2.18;100.00;98064.78;7425166;19;20450;-61
2022/02/06 13:52:32;;;;;;;1.58;0.60;;;;;;;2.07;100.00;98061.03;7430778;19;20403;-56
2022/02/06 13:55:06;;;;;;;1.30;0.63;;;;;;;2.10;100.00;98066.25;7423280;19;20197;-54
2022/02/06 13:57:37;;;;;;;3.10;0.70;;;;;;;2.13;100.00;98058.69;7402757;19;20412;-59
2022/02/06 14:00:19;;;;;;;1.77;0.63;;;;;;;2.14;100.00;98062.97;7396542;19;20222;-50
2022/02/06 14:02:55;;;;;;;1.20;0.50;;;;;;;2.09;100.00;98067.03;7400289;19;20408;-57